createdAt,value
2019-02-07T00:00:28.045Z,0.80
2019-02-07T00:01:29.353Z,1.20
2019-02-07T00:02:30.460Z,0.78
2019-02-07T00:03:31.672Z,1.00
2019-02-07T00:04:33.188Z,0.90
2019-02-07T00:05:34.340Z,1.10
2019-02-07T00:06:35.458Z,1.00
2019-02-07T00:07:36.568Z,0.75
2019-02-07T00:08:37.680Z,1.10
2019-02-07T00:09:38.793Z,0.82
2019-02-07T00:10:39.917Z,1.10
2019-02-07T00:11:41.030Z,0.90
2019-02-07T00:12:42.137Z,1.20
2019-02-07T00:13:43.461Z,1.00
2019-02-07T00:14:44.597Z,1.10
2019-02-07T00:15:45.755Z,0.80
2019-02-07T00:16:46.965Z,0.80
2019-02-07T00:17:48.081Z,0.78
2019-02-07T00:18:49.196Z,1.05
2019-02-07T00:19:50.414Z,1.02
2019-02-07T00:20:51.700Z,1.20
2019-02-07T00:21:52.913Z,0.72
2019-02-07T00:22:54.129Z,0.80
2019-02-07T00:23:55.248Z,1.00
2019-02-07T00:24:56.361Z,1.02
2019-02-07T00:25:57.509Z,0.90
2019-02-07T00:26:58.628Z,0.80
2019-02-07T00:27:59.738Z,0.80
2019-02-07T00:29:01.271Z,0.75
2019-02-07T00:30:05.988Z,1.10
2019-02-07T00:31:07.215Z,1.00
2019-02-07T00:32:08.829Z,0.80
2019-02-07T00:33:09.939Z,0.98
2019-02-07T00:34:11.224Z,1.00
2019-02-07T00:35:12.545Z,0.85
2019-02-07T00:36:13.693Z,0.70
2019-02-07T00:37:14.816Z,0.80
2019-02-07T00:38:15.930Z,0.70
2019-02-07T00:39:17.047Z,0.80
2019-02-07T00:40:19.361Z,1.15
2019-02-07T00:41:20.816Z,1.00
2019-02-07T00:42:21.930Z,0.95
2019-02-07T00:43:23.040Z,0.90
2019-02-07T00:44:24.160Z,1.00
2019-02-07T00:45:25.273Z,0.95
2019-02-07T00:46:26.906Z,0.98
2019-02-07T00:47:28.112Z,1.20
2019-02-07T00:48:29.326Z,0.90
2019-02-07T00:49:30.440Z,0.98
2019-02-07T00:50:31.850Z,0.80
2019-02-07T00:51:33.002Z,1.00
2019-02-07T00:52:34.110Z,1.05
2019-02-07T00:53:35.332Z,0.65
2019-02-07T00:54:36.441Z,0.95
2019-02-07T00:55:37.555Z,0.60
2019-02-07T00:56:39.833Z,0.60
2019-02-07T00:57:41.481Z,0.90
2019-02-07T00:58:42.592Z,0.70
2019-02-07T00:59:43.701Z,0.90
2019-02-07T01:00:45.207Z,0.80
2019-02-07T01:01:46.356Z,1.02
2019-02-07T01:02:47.464Z,0.57
2019-02-07T01:03:48.576Z,0.70
2019-02-07T01:04:49.683Z,0.78
2019-02-07T01:05:50.793Z,0.80
2019-02-07T01:06:51.944Z,0.88
2019-02-07T01:07:53.052Z,0.85
2019-02-07T01:08:54.270Z,0.80
2019-02-07T01:09:55.484Z,0.90
2019-02-07T01:10:56.597Z,0.50
2019-02-07T01:11:57.840Z,1.00
2019-02-07T01:12:58.947Z,0.90
2019-02-07T01:14:00.093Z,0.80
2019-02-07T01:15:02.352Z,0.70
2019-02-07T01:16:04.018Z,0.90
2019-02-07T01:17:05.805Z,0.80
2019-02-07T01:18:07.415Z,0.78
2019-02-07T01:19:09.124Z,0.60
2019-02-07T01:20:12.736Z,0.80
2019-02-07T01:21:13.841Z,0.40
2019-02-07T01:22:14.964Z,0.60
2019-02-07T01:23:16.078Z,0.80
2019-02-07T01:24:17.188Z,0.78
2019-02-07T01:25:22.848Z,1.00
2019-02-07T01:26:23.965Z,0.68
2019-02-07T01:27:25.251Z,0.80
2019-02-07T01:28:26.773Z,0.60
2019-02-07T01:29:27.897Z,0.90
2019-02-07T01:30:29.212Z,0.70
2019-02-07T01:31:30.323Z,0.65
2019-02-07T01:32:31.480Z,0.70
2019-02-07T01:33:32.691Z,0.90
2019-02-07T01:34:33.798Z,0.50
2019-02-07T01:35:35.014Z,0.70
2019-02-07T01:36:36.120Z,0.80
2019-02-07T01:37:37.544Z,0.60
2019-02-07T01:38:38.659Z,0.57
2019-02-07T01:39:39.773Z,0.60
2019-02-07T01:40:40.988Z,0.60
2019-02-07T01:41:42.101Z,0.60
2019-02-07T01:42:43.380Z,0.62
2019-02-07T01:43:44.591Z,0.80
2019-02-07T01:44:45.700Z,0.70
2019-02-07T01:45:46.911Z,0.70
2019-02-07T01:46:48.328Z,0.60
2019-02-07T01:47:50.254Z,0.82
2019-02-07T01:48:51.766Z,0.60
2019-02-07T01:49:52.870Z,0.83
2019-02-07T01:50:53.983Z,0.60
2019-02-07T01:51:55.094Z,0.70
2019-02-07T01:52:56.250Z,0.70
2019-02-07T01:53:57.365Z,0.50
2019-02-07T01:54:58.478Z,0.80
2019-02-07T01:56:00.092Z,0.78
2019-02-07T01:57:01.209Z,0.72
2019-02-07T01:58:02.460Z,0.70
2019-02-07T01:59:03.568Z,0.90
2019-02-07T02:00:09.591Z,0.60
2019-02-07T02:01:10.752Z,0.90
2019-02-07T02:02:11.959Z,0.80
2019-02-07T02:03:13.117Z,1.00
2019-02-07T02:04:14.238Z,0.70
2019-02-07T02:05:17.149Z,0.93
2019-02-07T02:06:18.764Z,0.55
2019-02-07T02:07:19.975Z,0.70
2019-02-07T02:08:21.200Z,0.70
2019-02-07T02:09:22.308Z,0.75
2019-02-07T02:10:27.699Z,0.70
2019-02-07T02:11:28.908Z,0.82
2019-02-07T02:12:30.224Z,0.70
2019-02-07T02:13:31.353Z,0.70
2019-02-07T02:14:32.472Z,0.80
2019-02-07T02:15:33.605Z,0.80
2019-02-07T02:16:34.822Z,0.70
2019-02-07T02:17:36.034Z,0.62
2019-02-07T02:18:37.192Z,0.80
2019-02-07T02:19:38.314Z,0.60
2019-02-07T02:20:39.432Z,0.80
2019-02-07T02:21:40.536Z,1.00
2019-02-07T02:22:41.752Z,0.68
2019-02-07T02:23:42.910Z,0.90
2019-02-07T02:24:45.283Z,0.70
2019-02-07T02:25:46.740Z,0.88
2019-02-07T02:26:47.900Z,0.70
2019-02-07T02:27:49.012Z,0.70
2019-02-07T02:28:50.160Z,0.60
2019-02-07T02:29:51.297Z,0.90
2019-02-07T02:30:52.379Z,0.90
2019-02-07T02:31:53.592Z,0.85
2019-02-07T02:32:54.811Z,1.07
2019-02-07T02:33:56.448Z,1.10
2019-02-07T02:34:57.565Z,0.75
2019-02-07T02:35:58.679Z,0.90
2019-02-07T02:36:59.802Z,0.70
2019-02-07T02:38:00.905Z,0.88
2019-02-07T02:39:04.064Z,0.98
2019-02-07T02:40:07.184Z,0.93
2019-02-07T02:41:08.294Z,0.85
2019-02-07T02:42:09.415Z,0.82
2019-02-07T02:43:10.524Z,0.88
2019-02-07T02:44:12.185Z,0.80
2019-02-07T02:45:16.401Z,0.90
2019-02-07T02:46:17.512Z,0.80
2019-02-07T02:47:18.624Z,1.00
2019-02-07T02:48:19.737Z,1.00
2019-02-07T02:49:20.857Z,0.80
2019-02-07T02:50:22.168Z,0.93
2019-02-07T02:51:23.280Z,0.98
2019-02-07T02:52:24.390Z,0.75
2019-02-07T02:53:25.906Z,0.60
2019-02-07T02:54:31.921Z,0.80
2019-02-07T02:55:35.144Z,0.78
2019-02-07T02:56:36.248Z,0.95
2019-02-07T02:57:37.461Z,0.70
2019-02-07T02:58:38.576Z,0.68
2019-02-07T02:59:39.810Z,0.70
2019-02-07T03:00:58.341Z,0.88
2019-02-07T03:02:01.357Z,0.88
2019-02-07T03:03:16.505Z,1.02
2019-02-07T03:04:19.524Z,0.90
2019-02-07T03:05:34.618Z,0.85
2019-02-07T03:06:46.471Z,0.90
2019-02-07T03:07:55.257Z,0.90
2019-02-07T03:09:00.835Z,0.90
2019-02-07T03:10:04.059Z,0.60
2019-02-07T03:11:21.900Z,0.80
2019-02-07T03:12:31.127Z,1.05
2019-02-07T03:13:36.749Z,0.72
2019-02-07T03:14:52.061Z,0.78
2019-02-07T03:15:57.673Z,1.00
2019-02-07T03:17:06.626Z,0.85
2019-02-07T03:18:18.548Z,0.80
2019-02-07T03:19:21.562Z,1.00
2019-02-07T03:20:30.459Z,0.80
2019-02-07T03:21:36.317Z,0.98
2019-02-07T03:22:39.327Z,0.80
2019-02-07T03:23:57.433Z,0.90
2019-02-07T03:25:12.473Z,0.60
2019-02-07T03:26:18.289Z,0.60
2019-02-07T03:27:37.983Z,0.80
2019-02-07T03:28:43.512Z,0.87
2019-02-07T03:29:46.528Z,0.60
2019-02-07T03:30:52.330Z,0.55
2019-02-07T03:32:12.016Z,0.80
2019-02-07T03:33:17.645Z,0.60
2019-02-07T03:34:29.553Z,0.75
2019-02-07T03:35:35.409Z,0.97
2019-02-07T03:36:55.268Z,0.70
2019-02-07T03:37:58.289Z,0.70
2019-02-07T03:39:10.196Z,1.05
2019-02-07T03:40:26.367Z,0.68
2019-02-07T03:41:32.439Z,1.00
2019-02-07T03:42:38.169Z,1.07
2019-02-07T03:43:49.832Z,1.05
2019-02-07T03:44:52.845Z,0.83
2019-02-07T03:46:03.080Z,0.88
2019-02-07T03:47:18.056Z,1.25
2019-02-07T03:48:21.078Z,1.02
2019-02-07T03:49:32.957Z,0.90
2019-02-07T03:50:38.728Z,0.80
2019-02-07T03:51:50.552Z,0.80
2019-02-07T03:52:56.199Z,0.93
2019-02-07T03:54:13.044Z,0.80
2019-02-07T03:55:21.588Z,0.80
2019-02-07T03:56:30.339Z,0.90
2019-02-07T03:57:35.876Z,0.80
2019-02-07T03:58:38.934Z,0.70
2019-02-07T03:59:50.745Z,1.12
2019-02-07T04:01:02.867Z,0.80
2019-02-07T04:02:11.908Z,1.20
2019-02-07T04:03:15.028Z,0.82
2019-02-07T04:04:20.600Z,1.07
2019-02-07T04:05:29.150Z,0.90
2019-02-07T04:06:34.824Z,1.10
2019-02-07T04:07:37.841Z,1.05
2019-02-07T04:08:43.710Z,0.90
2019-02-07T04:09:49.284Z,0.72
2019-02-07T04:11:07.354Z,0.85
2019-02-07T04:12:10.371Z,0.85
2019-02-07T04:13:15.944Z,1.05
2019-02-07T04:14:35.312Z,0.90
2019-02-07T04:15:47.728Z,0.90
2019-02-07T04:16:50.753Z,1.07
2019-02-07T04:18:08.806Z,1.00
2019-02-07T04:19:20.597Z,1.10
2019-02-07T04:20:40.249Z,1.02
2019-02-07T04:21:45.832Z,0.98
2019-02-07T04:22:48.848Z,0.95
2019-02-07T04:23:51.890Z,1.40
2019-02-07T04:25:03.925Z,1.20
2019-02-07T04:26:25.165Z,1.03
2019-02-07T04:27:28.184Z,1.10
2019-02-07T04:28:40.038Z,1.02
2019-02-07T04:29:48.835Z,1.33
2019-02-07T04:30:57.406Z,1.40
2019-02-07T04:32:00.442Z,0.90
2019-02-07T04:33:09.477Z,1.22
2019-02-07T04:34:24.293Z,1.17
2019-02-07T04:35:27.313Z,1.00
2019-02-07T04:36:30.328Z,1.30
2019-02-07T04:37:39.322Z,1.35
2019-02-07T04:38:58.952Z,1.12
2019-02-07T04:40:01.974Z,1.17
2019-02-07T04:41:21.890Z,1.20
2019-02-07T04:42:41.975Z,1.20
2019-02-07T04:43:47.511Z,1.25
2019-02-07T04:45:02.609Z,1.60
2019-02-07T04:46:26.370Z,1.50
2019-02-07T04:47:34.447Z,1.00
2019-02-07T04:48:43.054Z,1.20
2019-02-07T04:50:00.962Z,1.30
2019-02-07T04:51:04.048Z,1.10
2019-02-07T04:52:13.125Z,1.02
2019-02-07T04:53:16.154Z,1.30
2019-02-07T04:54:31.269Z,1.07
2019-02-07T04:55:50.988Z,1.55
2019-02-07T04:56:56.556Z,1.27
2019-02-07T04:58:14.458Z,1.10
2019-02-07T04:59:17.475Z,1.35
2019-02-07T05:00:20.602Z,1.20
2019-02-07T05:01:26.303Z,1.37
2019-02-07T05:02:38.412Z,1.57
2019-02-07T05:03:43.932Z,1.30
2019-02-07T05:04:46.954Z,1.37
2019-02-07T05:06:05.138Z,1.25
2019-02-07T05:07:08.157Z,1.30
2019-02-07T05:08:11.224Z,1.55
2019-02-07T05:09:17.037Z,1.20
2019-02-07T05:10:31.832Z,1.32
2019-02-07T05:11:34.960Z,1.35
2019-02-07T05:12:37.980Z,1.37
2019-02-07T05:13:50.121Z,1.27
2019-02-07T05:14:55.646Z,1.63
2019-02-07T05:15:58.677Z,1.50
2019-02-07T05:17:13.545Z,1.40
2019-02-07T05:18:19.108Z,1.33
2019-02-07T05:19:38.772Z,1.30
2019-02-07T05:20:47.424Z,1.30
2019-02-07T05:21:50.448Z,1.02
2019-02-07T05:22:53.502Z,1.20
2019-02-07T05:23:56.656Z,1.40
2019-02-07T05:25:14.958Z,1.15
2019-02-07T05:26:23.648Z,1.40
2019-02-07T05:27:35.521Z,1.20
2019-02-07T05:28:38.582Z,1.60
2019-02-07T05:29:41.604Z,1.32
2019-02-07T05:30:45.133Z,1.32
2019-02-07T05:31:50.705Z,1.20
2019-02-07T05:33:10.049Z,1.40
2019-02-07T05:34:31.555Z,1.40
2019-02-07T05:35:50.946Z,1.30
2019-02-07T05:36:59.667Z,1.37
2019-02-07T05:38:05.235Z,1.22
2019-02-07T05:39:18.031Z,1.22
2019-02-07T05:40:21.051Z,1.30
2019-02-07T05:41:26.869Z,1.52
2019-02-07T05:42:46.464Z,1.33
2019-02-07T05:43:51.987Z,1.55
2019-02-07T05:45:11.358Z,1.52
2019-02-07T05:46:20.089Z,1.20
2019-02-07T05:47:31.748Z,1.42
2019-02-07T05:48:34.766Z,1.35
2019-02-07T05:49:46.588Z,1.52
2019-02-07T05:51:07.837Z,1.60
2019-02-07T05:52:22.773Z,1.62
2019-02-07T05:53:42.125Z,1.62
2019-02-07T05:54:47.665Z,1.50
2019-02-07T05:55:59.391Z,1.63
2019-02-07T05:57:04.911Z,1.55
2019-02-07T05:58:08.020Z,1.62
2019-02-07T05:59:27.425Z,1.70
2019-02-07T06:00:39.197Z,1.85
2019-02-07T06:01:59.294Z,1.80
2019-02-07T06:03:14.079Z,2.13
2019-02-07T06:04:28.856Z,1.87
2019-02-07T06:05:31.873Z,2.10
2019-02-07T06:06:50.149Z,1.62
2019-02-07T06:07:58.921Z,1.67
2019-02-07T06:09:07.552Z,1.82
2019-02-07T06:10:28.037Z,1.95
2019-02-07T06:11:31.087Z,2.00
2019-02-07T06:12:36.751Z,1.90
2019-02-07T06:13:42.624Z,1.92
2019-02-07T06:15:02.312Z,1.95
2019-02-07T06:16:05.329Z,2.10
2019-02-07T06:17:24.958Z,2.00
2019-02-07T06:18:36.682Z,2.02
2019-02-07T06:19:56.397Z,1.77
2019-02-07T06:21:11.207Z,1.92
2019-02-07T06:22:14.329Z,1.72
2019-02-07T06:23:17.339Z,1.80
2019-02-07T06:24:36.704Z,1.90
2019-02-07T06:25:56.153Z,1.77
2019-02-07T06:27:15.800Z,1.90
2019-02-07T06:28:24.368Z,2.02
2019-02-07T06:29:33.412Z,1.80
2019-02-07T06:30:36.432Z,2.08
2019-02-07T06:31:54.542Z,1.90
2019-02-07T06:33:00.492Z,1.70
2019-02-07T06:34:03.506Z,1.70
2019-02-07T06:35:10.645Z,1.60
2019-02-07T06:36:16.617Z,1.75
2019-02-07T06:37:20.036Z,1.85
2019-02-07T06:38:23.088Z,1.70
2019-02-07T06:39:29.033Z,1.77
2019-02-07T06:40:34.803Z,1.85
2019-02-07T06:41:49.648Z,1.55
2019-02-07T06:42:58.271Z,1.82
2019-02-07T06:44:07.257Z,1.60
2019-02-07T06:45:12.076Z,1.97
2019-02-07T06:46:26.675Z,1.57
2019-02-07T06:47:29.693Z,2.02
2019-02-07T06:48:32.711Z,1.72
2019-02-07T06:49:52.653Z,2.00
2019-02-07T06:50:55.669Z,1.50
2019-02-07T06:52:10.533Z,1.42
2019-02-07T06:53:16.453Z,1.70
2019-02-07T06:54:19.476Z,1.37
2019-02-07T06:55:28.529Z,1.70
2019-02-07T06:56:34.315Z,1.67
2019-02-07T06:57:55.395Z,1.37
2019-02-07T06:58:58.412Z,1.35
2019-02-07T07:00:10.169Z,1.35
2019-02-07T07:01:28.481Z,1.50
2019-02-07T07:02:34.468Z,1.65
2019-02-07T07:03:43.214Z,1.20
2019-02-07T07:04:46.232Z,1.40
2019-02-07T07:06:01.258Z,1.30
2019-02-07T07:07:10.413Z,1.37
2019-02-07T07:08:30.168Z,1.45
2019-02-07T07:09:41.967Z,1.40
2019-02-07T07:11:02.984Z,1.55
2019-02-07T07:12:06.105Z,1.50
2019-02-07T07:13:11.641Z,1.60
2019-02-07T07:14:23.449Z,1.67
2019-02-07T07:15:41.547Z,1.55
2019-02-07T07:17:01.492Z,1.90
2019-02-07T07:18:13.696Z,1.57
2019-02-07T07:19:19.306Z,1.95
2019-02-07T07:20:22.325Z,1.40
2019-02-07T07:21:31.149Z,1.57
2019-02-07T07:22:34.166Z,1.77
2019-02-07T07:23:53.876Z,1.87
2019-02-07T07:24:59.508Z,1.70
2019-02-07T07:26:11.535Z,1.70
2019-02-07T07:27:23.581Z,1.52
2019-02-07T07:28:43.220Z,1.67
2019-02-07T07:29:49.282Z,1.60
2019-02-07T07:30:55.089Z,1.40
2019-02-07T07:31:58.100Z,1.60
2019-02-07T07:33:16.106Z,1.80
2019-02-07T07:34:35.676Z,1.80
2019-02-07T07:35:47.496Z,1.50
2019-02-07T07:36:56.116Z,1.70
2019-02-07T07:38:08.012Z,1.40
2019-02-07T07:39:29.335Z,1.10
2019-02-07T07:40:44.416Z,1.55
2019-02-07T07:42:05.273Z,1.25
2019-02-07T07:43:10.845Z,1.55
2019-02-07T07:44:13.863Z,1.62
2019-02-07T07:45:20.949Z,1.40
2019-02-07T07:46:29.508Z,1.55
2019-02-07T07:47:35.989Z,1.67
2019-02-07T07:48:37.436Z,1.60
2019-02-07T07:49:43.223Z,1.57
2019-02-07T07:50:49.005Z,1.50
2019-02-07T07:52:00.738Z,1.77
2019-02-07T07:53:15.559Z,1.72
2019-02-07T07:54:30.826Z,1.60
2019-02-07T07:55:42.662Z,1.12
2019-02-07T07:56:48.604Z,1.62
2019-02-07T07:58:09.713Z,1.57
2019-02-07T07:59:18.257Z,1.72
2019-02-07T08:00:27.850Z,1.65
2019-02-07T08:01:39.542Z,1.45
2019-02-07T08:02:45.826Z,1.80
2019-02-07T08:03:51.596Z,1.42
2019-02-07T08:04:57.444Z,1.70
2019-02-07T08:06:09.186Z,1.67
2019-02-07T08:07:20.869Z,1.82
2019-02-07T08:08:39.000Z,1.92
2019-02-07T08:09:42.030Z,1.55
2019-02-07T08:11:00.242Z,1.80
2019-02-07T08:12:05.860Z,1.40
2019-02-07T08:13:14.830Z,1.70
2019-02-07T08:14:20.425Z,1.35
2019-02-07T08:15:41.348Z,1.60
2019-02-07T08:16:53.779Z,1.67
2019-02-07T08:18:09.088Z,1.50
2019-02-07T08:19:17.800Z,1.40
2019-02-07T08:20:20.812Z,1.40
2019-02-07T08:21:29.479Z,1.82
2019-02-07T08:22:35.400Z,1.52
2019-02-07T08:23:47.094Z,1.60
2019-02-07T08:25:06.726Z,1.45
2019-02-07T08:26:21.535Z,1.70
2019-02-07T08:27:43.381Z,1.60
2019-02-07T08:28:58.779Z,1.70
2019-02-07T08:30:10.937Z,1.70
2019-02-07T08:31:13.951Z,1.57
2019-02-07T08:32:33.383Z,1.60
2019-02-07T08:33:39.117Z,1.62
2019-02-07T08:34:41.324Z,1.35
2019-02-07T08:36:00.937Z,1.67
2019-02-07T08:37:21.845Z,1.65
2019-02-07T08:38:27.588Z,1.70
2019-02-07T08:39:36.685Z,1.82
2019-02-07T08:40:48.740Z,1.67
2019-02-07T08:41:51.752Z,1.50
2019-02-07T08:43:11.067Z,1.60
2019-02-07T08:44:19.621Z,1.50
2019-02-07T08:45:22.640Z,1.42
2019-02-07T08:46:25.722Z,1.75
2019-02-07T08:47:45.468Z,1.72
2019-02-07T08:49:01.133Z,1.75
2019-02-07T08:50:07.368Z,1.40
2019-02-07T08:51:13.415Z,1.77
2019-02-07T08:52:34.328Z,1.52
2019-02-07T08:53:39.860Z,1.80
2019-02-07T08:54:48.404Z,1.75
2019-02-07T08:56:07.997Z,1.55
2019-02-07T08:57:20.156Z,1.32
2019-02-07T08:58:41.748Z,1.67
2019-02-07T08:59:44.769Z,1.65
2019-02-07T09:00:47.777Z,1.02
2019-02-07T09:02:06.304Z,1.42
2019-02-07T09:03:21.258Z,1.35
2019-02-07T09:04:27.070Z,1.42
2019-02-07T09:05:46.961Z,1.47
2019-02-07T09:07:07.910Z,1.15
2019-02-07T09:08:27.321Z,1.32
2019-02-07T09:09:30.339Z,1.30
2019-02-07T09:10:42.021Z,1.45
2019-02-07T09:11:48.021Z,1.10
2019-02-07T09:12:56.615Z,1.23
2019-02-07T09:14:02.196Z,1.30
2019-02-07T09:15:14.456Z,1.20
2019-02-07T09:16:23.081Z,1.40
2019-02-07T09:17:26.104Z,1.37
2019-02-07T09:18:41.166Z,1.07
2019-02-07T09:20:00.666Z,1.30
2019-02-07T09:21:12.832Z,1.32
2019-02-07T09:22:18.379Z,1.10
2019-02-07T09:23:21.401Z,1.00
2019-02-07T09:24:29.949Z,1.20
2019-02-07T09:25:35.953Z,1.32
2019-02-07T09:26:38.977Z,1.15
2019-02-07T09:27:53.580Z,1.10
2019-02-07T09:28:59.281Z,1.15
2019-02-07T09:30:08.126Z,0.98
2019-02-07T09:31:27.632Z,1.37
2019-02-07T09:32:33.665Z,1.25
2019-02-07T09:33:41.508Z,1.00
2019-02-07T09:34:52.528Z,0.98
2019-02-07T09:36:05.422Z,1.20
2019-02-07T09:37:12.097Z,1.10
2019-02-07T09:38:20.816Z,1.20
2019-02-07T09:39:38.642Z,0.85
2019-02-07T09:40:44.486Z,0.98
2019-02-07T09:41:50.027Z,1.02
2019-02-07T09:43:09.460Z,0.80
2019-02-07T09:44:12.977Z,0.90
2019-02-07T09:45:17.793Z,1.22
2019-02-07T09:46:37.561Z,1.07
2019-02-07T09:47:57.698Z,1.30
2019-02-07T09:49:00.713Z,1.40
2019-02-07T09:50:07.776Z,1.10
2019-02-07T09:51:28.824Z,1.20
2019-02-07T09:52:34.866Z,1.20
2019-02-07T09:53:37.896Z,1.02
2019-02-07T09:54:46.933Z,0.90
2019-02-07T09:56:08.365Z,1.00
2019-02-07T09:57:11.375Z,1.20
2019-02-07T09:58:16.941Z,1.02
2019-02-07T09:59:25.766Z,1.10
2019-02-07T10:00:45.262Z,1.12
2019-02-07T10:01:50.808Z,1.00
2019-02-07T10:02:53.828Z,1.20
2019-02-07T10:04:02.662Z,1.05
2019-02-07T10:05:08.568Z,0.95
2019-02-07T10:06:23.471Z,1.20
2019-02-07T10:07:35.468Z,1.00
2019-02-07T10:08:44.255Z,1.12
2019-02-07T10:09:53.117Z,1.20
2019-02-07T10:10:56.180Z,0.90
2019-02-07T10:11:59.398Z,1.00
2019-02-07T10:13:08.221Z,0.90
2019-02-07T10:14:20.090Z,0.80
2019-02-07T10:15:38.123Z,1.15
2019-02-07T10:16:57.501Z,0.90
2019-02-07T10:18:17.369Z,1.00
2019-02-07T10:19:32.190Z,1.00
2019-02-07T10:20:37.286Z,0.90
2019-02-07T10:21:42.924Z,1.00
2019-02-07T10:22:48.832Z,1.17
2019-02-07T10:24:03.701Z,0.90
2019-02-07T10:25:19.221Z,1.20
2019-02-07T10:26:30.995Z,0.90
2019-02-07T10:27:39.900Z,0.85
2019-02-07T10:28:42.921Z,1.20
2019-02-07T10:29:55.005Z,1.12
2019-02-07T10:31:14.678Z,1.02
2019-02-07T10:32:23.244Z,1.10
2019-02-07T10:33:44.376Z,1.30
2019-02-07T10:34:50.608Z,1.00
2019-02-07T10:35:59.860Z,1.20
2019-02-07T10:37:06.329Z,1.10
2019-02-07T10:38:18.425Z,1.10
2019-02-07T10:39:38.302Z,1.20
2019-02-07T10:40:50.087Z,1.17
2019-02-07T10:41:58.660Z,0.85
2019-02-07T10:43:16.753Z,1.10
2019-02-07T10:44:22.526Z,1.10
2019-02-07T10:45:40.635Z,1.17
2019-02-07T10:46:46.165Z,1.10
2019-02-07T10:48:05.736Z,1.02
2019-02-07T10:49:10.857Z,1.10
2019-02-07T10:50:28.769Z,1.15
2019-02-07T10:51:34.343Z,1.10
2019-02-07T10:52:40.011Z,0.98
2019-02-07T10:53:44.886Z,1.20
2019-02-07T10:54:50.437Z,1.17
2019-02-07T10:56:10.017Z,1.02
2019-02-07T10:57:29.547Z,1.22
2019-02-07T10:58:32.570Z,0.90
2019-02-07T10:59:44.696Z,1.50
2019-02-07T11:00:50.462Z,1.07
2019-02-07T11:02:05.719Z,1.12
2019-02-07T11:03:25.703Z,1.20
2019-02-07T11:04:46.774Z,0.95
2019-02-07T11:05:49.989Z,0.80
2019-02-07T11:07:08.634Z,1.02
2019-02-07T11:08:11.658Z,1.07
2019-02-07T11:09:32.078Z,0.90
2019-02-07T11:10:51.650Z,1.40
2019-02-07T11:12:07.052Z,0.82
2019-02-07T11:13:26.628Z,1.00
2019-02-07T11:14:38.236Z,1.10
2019-02-07T11:15:57.885Z,1.02
2019-02-07T11:17:17.379Z,1.10
2019-02-07T11:18:35.935Z,0.70
2019-02-07T11:19:50.571Z,1.30
2019-02-07T11:21:11.689Z,1.00
2019-02-07T11:22:31.060Z,1.30
2019-02-07T11:23:39.668Z,0.70
2019-02-07T11:24:45.455Z,1.00
2019-02-07T11:26:04.755Z,0.98
2019-02-07T11:27:24.188Z,0.90
2019-02-07T11:28:42.092Z,0.95
2019-02-07T11:29:45.093Z,0.98
2019-02-07T11:31:06.577Z,0.82
2019-02-07T11:32:18.651Z,0.93
2019-02-07T11:33:21.668Z,1.07
2019-02-07T11:34:25.103Z,1.00
2019-02-07T11:35:30.763Z,1.35
2019-02-07T11:36:33.777Z,1.10
2019-02-07T11:37:53.254Z,0.90
2019-02-07T11:39:14.631Z,1.10
2019-02-07T11:40:17.648Z,1.17
2019-02-07T11:41:20.965Z,1.17
2019-02-07T11:42:24.278Z,1.02
2019-02-07T11:43:30.058Z,1.27
2019-02-07T11:44:36.240Z,1.10
2019-02-07T11:45:39.253Z,1.40
2019-02-07T11:46:48.967Z,1.10
2019-02-07T11:47:54.689Z,1.20
2019-02-07T11:49:06.803Z,0.98
2019-02-07T11:50:14.343Z,1.25
2019-02-07T11:51:17.365Z,1.00
2019-02-07T11:52:31.225Z,1.05
2019-02-07T11:53:46.020Z,0.95
2019-02-07T11:54:49.036Z,1.00
2019-02-07T11:55:52.064Z,1.00
2019-02-07T11:57:00.933Z,0.75
2019-02-07T11:58:06.708Z,0.88
2019-02-07T11:59:09.721Z,1.02
2019-02-07T12:00:19.274Z,0.80
2019-02-07T12:01:24.831Z,1.00
2019-02-07T12:02:44.437Z,0.80
2019-02-07T12:03:56.183Z,0.70
2019-02-07T12:05:02.000Z,0.85
2019-02-07T12:06:05.518Z,1.02
2019-02-07T12:07:08.554Z,0.95
2019-02-07T12:08:15.595Z,1.02
2019-02-07T12:09:18.613Z,0.95
2019-02-07T12:10:36.966Z,1.00
2019-02-07T12:11:39.983Z,1.12
2019-02-07T12:12:43.020Z,1.30
2019-02-07T12:13:57.869Z,0.90
2019-02-07T12:15:03.649Z,0.90
2019-02-07T12:16:06.764Z,0.90
2019-02-07T12:17:16.012Z,1.20
2019-02-07T12:18:20.163Z,0.80
2019-02-07T12:19:35.305Z,1.12
2019-02-07T12:20:54.721Z,1.07
2019-02-07T12:21:57.738Z,1.00
2019-02-07T12:23:03.568Z,1.00
2019-02-07T12:24:09.145Z,0.70
2019-02-07T12:25:28.733Z,0.90
2019-02-07T12:26:35.048Z,1.02
2019-02-07T12:27:38.067Z,0.65
2019-02-07T12:28:43.844Z,0.80
2019-02-07T12:29:46.878Z,0.90
2019-02-07T12:30:58.609Z,0.90
2019-02-07T12:32:01.625Z,0.70
2019-02-07T12:33:04.640Z,0.90
2019-02-07T12:34:07.753Z,0.70
2019-02-07T12:35:17.254Z,1.02
2019-02-07T12:36:20.569Z,0.75
2019-02-07T12:37:23.595Z,0.90
2019-02-07T12:38:26.614Z,0.80
2019-02-07T12:39:41.757Z,0.90
2019-02-07T12:40:47.304Z,0.70
2019-02-07T12:41:56.368Z,0.60
2019-02-07T12:43:08.392Z,0.70
2019-02-07T12:44:14.209Z,0.70
2019-02-07T12:45:34.002Z,0.70
2019-02-07T12:46:53.484Z,0.80
2019-02-07T12:48:12.843Z,0.88
2019-02-07T12:49:33.712Z,0.78
2019-02-07T12:50:53.058Z,0.80
2019-02-07T12:51:56.085Z,1.15
2019-02-07T12:52:59.104Z,0.70
2019-02-07T12:54:07.923Z,0.85
2019-02-07T12:55:14.192Z,1.00
2019-02-07T12:56:24.820Z,0.60
2019-02-07T12:57:44.472Z,0.82
2019-02-07T12:58:50.185Z,0.78
2019-02-07T12:59:58.856Z,0.90
2019-02-07T13:01:19.820Z,0.70
2019-02-07T13:02:28.464Z,0.80
2019-02-07T13:03:31.530Z,0.95
2019-02-07T13:04:34.549Z,1.10
2019-02-07T13:05:37.571Z,0.90
2019-02-07T13:06:40.590Z,0.93
2019-02-07T13:08:02.024Z,1.02
2019-02-07T13:09:17.832Z,0.90
2019-02-07T13:10:26.384Z,0.80
2019-02-07T13:11:29.417Z,0.70
2019-02-07T13:12:44.257Z,0.90
2019-02-07T13:13:59.154Z,0.70
2019-02-07T13:15:08.427Z,0.70
2019-02-07T13:16:20.491Z,0.93
2019-02-07T13:17:35.533Z,0.93
2019-02-07T13:18:56.808Z,0.98
2019-02-07T13:20:05.804Z,1.00
2019-02-07T13:21:08.828Z,0.78
2019-02-07T13:22:12.245Z,1.30
2019-02-07T13:23:30.388Z,1.00
2019-02-07T13:24:42.281Z,0.90
2019-02-07T13:26:03.518Z,1.05
2019-02-07T13:27:15.594Z,0.82
2019-02-07T13:28:30.314Z,1.02
2019-02-07T13:29:45.427Z,0.98
2019-02-07T13:30:51.304Z,0.95
2019-02-07T13:32:12.574Z,0.78
2019-02-07T13:33:18.178Z,0.90
2019-02-07T13:34:23.772Z,1.00
2019-02-07T13:35:29.809Z,1.10
2019-02-07T13:36:49.714Z,1.12
2019-02-07T13:37:55.864Z,1.70
2019-02-07T13:38:58.868Z,1.25
2019-02-07T13:40:01.890Z,1.85
2019-02-07T13:41:07.826Z,1.45
2019-02-07T13:42:10.838Z,1.72
2019-02-07T13:43:13.868Z,1.67
2019-02-07T13:44:19.409Z,1.50
2019-02-07T13:45:22.524Z,1.72
2019-02-07T13:46:25.542Z,1.57
2019-02-07T13:47:31.173Z,1.92
2019-02-07T13:48:50.985Z,1.65
2019-02-07T13:50:08.917Z,1.85
2019-02-07T13:51:14.720Z,1.87
2019-02-07T13:52:20.808Z,1.80
2019-02-07T13:53:32.883Z,1.82
2019-02-07T13:54:35.921Z,1.95
2019-02-07T13:55:41.473Z,1.47
2019-02-07T13:56:44.493Z,1.55
2019-02-07T13:58:04.456Z,2.33
2019-02-07T13:59:07.473Z,1.35
2019-02-07T14:00:16.350Z,1.40
2019-02-07T14:01:22.324Z,1.55
2019-02-07T14:02:27.900Z,1.50
2019-02-07T14:03:30.922Z,1.30
2019-02-07T14:04:36.909Z,1.10
2019-02-07T14:05:52.016Z,1.62
2019-02-07T14:07:12.151Z,1.80
2019-02-07T14:08:15.173Z,1.80
2019-02-07T14:09:18.191Z,1.30
2019-02-07T14:10:21.608Z,1.57
2019-02-07T14:11:27.179Z,1.50
2019-02-07T14:12:46.856Z,1.70
2019-02-07T14:14:07.930Z,1.30
2019-02-07T14:15:20.573Z,1.77
2019-02-07T14:16:23.588Z,2.12
2019-02-07T14:17:29.797Z,1.60
2019-02-07T14:18:32.835Z,1.47
2019-02-07T14:19:35.873Z,1.50
2019-02-07T14:20:39.288Z,1.37
2019-02-07T14:21:42.312Z,1.40
2019-02-07T14:22:54.181Z,1.10
2019-02-07T14:23:57.216Z,1.22
2019-02-07T14:25:02.961Z,1.30
2019-02-07T14:26:08.687Z,1.32
2019-02-07T14:27:17.531Z,1.42
2019-02-07T14:28:20.680Z,1.40
2019-02-07T14:29:29.696Z,1.40
2019-02-07T14:30:49.064Z,1.80
2019-02-07T14:32:06.988Z,1.20
2019-02-07T14:33:21.810Z,1.22
2019-02-07T14:34:28.137Z,1.80
2019-02-07T14:35:40.299Z,1.22
2019-02-07T14:36:45.617Z,1.22
2019-02-07T14:37:57.222Z,1.42
2019-02-07T14:39:06.487Z,1.40
2019-02-07T14:40:28.319Z,1.20
2019-02-07T14:41:33.884Z,1.52
2019-02-07T14:42:36.908Z,1.20
2019-02-07T14:43:39.926Z,1.35
2019-02-07T14:44:49.126Z,1.40
2019-02-07T14:45:55.212Z,1.50
2019-02-07T14:46:56.435Z,1.52
2019-02-07T14:47:57.706Z,1.35
2019-02-07T14:48:59.009Z,1.40
2019-02-07T14:50:00.188Z,1.40
2019-02-07T14:51:01.280Z,1.30
2019-02-07T14:52:02.491Z,1.57
2019-02-07T14:53:03.602Z,1.50
2019-02-07T14:54:04.813Z,1.55
2019-02-07T14:55:08.045Z,1.55
2019-02-07T14:56:09.159Z,1.27
2019-02-07T14:57:10.272Z,1.20
2019-02-07T14:58:11.385Z,1.40
2019-02-07T14:59:12.700Z,1.20
2019-02-07T15:00:20.453Z,1.32
2019-02-07T15:01:21.667Z,1.30
2019-02-07T15:02:22.780Z,1.60
2019-02-07T15:03:23.992Z,1.37
2019-02-07T15:04:25.307Z,1.32